createdAt,value
2023-01-26T00:01:19.718Z,61.05
2023-01-26T00:03:46.876Z,60.11
2023-01-26T00:06:16.379Z,58.71
2023-01-26T00:08:44.630Z,58.52
2023-01-26T00:11:13.966Z,58.34
2023-01-26T00:13:41.051Z,57.17
2023-01-26T00:16:13.577Z,56.46
2023-01-26T00:18:40.831Z,55.80
2023-01-26T00:21:13.971Z,57.49
2023-01-26T00:23:40.585Z,56.99
2023-01-26T00:26:08.689Z,58.36
2023-01-26T00:28:35.240Z,58.94
2023-01-26T00:31:06.658Z,60.28
2023-01-26T00:33:33.677Z,59.90
2023-01-26T00:36:00.442Z,58.47
2023-01-26T00:38:27.396Z,58.76
2023-01-26T00:40:53.991Z,60.94
2023-01-26T00:43:20.602Z,61.34
2023-01-26T00:45:47.717Z,61.45
2023-01-26T00:48:14.317Z,60.18
2023-01-26T00:50:40.868Z,60.59
2023-01-26T00:53:07.347Z,59.44
2023-01-26T00:55:33.867Z,59.17
2023-01-26T00:58:01.606Z,59.30
2023-01-26T01:00:28.427Z,59.85
2023-01-26T01:02:56.860Z,59.35
2023-01-26T01:05:24.667Z,59.15
2023-01-26T01:07:51.585Z,59.15
2023-01-26T01:10:18.451Z,60.40
2023-01-26T01:12:45.418Z,59.30
2023-01-26T01:15:12.146Z,58.67
2023-01-26T01:17:38.823Z,58.88
2023-01-26T01:20:06.763Z,57.74
2023-01-26T01:22:34.212Z,59.06
2023-01-26T01:25:00.687Z,60.37
2023-01-26T01:27:27.246Z,59.81
2023-01-26T01:29:54.173Z,59.52
2023-01-26T01:32:21.059Z,58.83
2023-01-26T01:34:48.058Z,57.93
2023-01-26T01:37:15.145Z,58.13
2023-01-26T01:39:41.671Z,58.14
2023-01-26T01:42:08.448Z,58.35
2023-01-26T01:44:36.581Z,58.96
2023-01-26T01:47:05.623Z,58.13
2023-01-26T01:49:36.814Z,59.22
2023-01-26T01:52:18.327Z,58.95
2023-01-26T01:54:51.082Z,58.63
2023-01-26T01:57:28.542Z,58.87
2023-01-26T01:59:59.943Z,59.75
2023-01-26T02:02:26.649Z,59.85
2023-01-26T02:04:54.400Z,60.25
2023-01-26T02:07:21.425Z,59.63
2023-01-26T02:10:06.483Z,60.14
2023-01-26T02:12:33.863Z,61.02
2023-01-26T02:15:01.453Z,59.79
2023-01-26T02:17:27.974Z,61.39
2023-01-26T02:20:16.276Z,61.42
2023-01-26T02:22:52.343Z,60.39
2023-01-26T02:25:40.539Z,60.82
2023-01-26T02:28:07.054Z,62.35
2023-01-26T02:30:33.716Z,62.68
2023-01-26T02:33:00.370Z,62.84
2023-01-26T02:35:26.857Z,61.60
2023-01-26T02:37:53.656Z,62.36
2023-01-26T02:40:38.507Z,62.93
2023-01-26T02:43:05.222Z,62.94
2023-01-26T02:45:32.973Z,62.87
2023-01-26T02:48:04.548Z,64.63
2023-01-26T02:50:31.187Z,64.72
2023-01-26T02:52:57.744Z,66.01
2023-01-26T02:55:28.670Z,65.05
2023-01-26T02:57:56.948Z,63.74
2023-01-26T03:00:28.914Z,62.91
2023-01-26T03:02:57.261Z,62.55
2023-01-26T03:05:23.926Z,64.58
2023-01-26T03:07:50.630Z,66.12
2023-01-26T03:10:18.205Z,64.83
2023-01-26T03:12:45.587Z,63.90
2023-01-26T03:15:31.423Z,64.81
2023-01-26T03:18:24.061Z,64.85
2023-01-26T03:21:09.151Z,65.28
2023-01-26T03:23:54.137Z,64.04
2023-01-26T03:26:39.263Z,62.70
2023-01-26T03:29:05.765Z,62.38
2023-01-26T03:31:32.476Z,63.18
2023-01-26T03:33:58.993Z,62.59
2023-01-26T03:36:25.545Z,63.73
2023-01-26T03:38:51.982Z,62.20
2023-01-26T03:41:37.644Z,62.76
2023-01-26T03:44:22.762Z,61.65
2023-01-26T03:47:07.512Z,61.89
2023-01-26T03:49:52.461Z,61.70
2023-01-26T03:52:37.228Z,61.10
2023-01-26T03:55:22.360Z,62.17
2023-01-26T03:57:49.003Z,61.46
2023-01-26T04:00:15.934Z,63.17
2023-01-26T04:03:00.959Z,62.98
2023-01-26T04:05:45.804Z,63.34
2023-01-26T04:08:24.471Z,62.84
2023-01-26T04:10:54.320Z,62.26
2023-01-26T04:13:41.022Z,63.31
2023-01-26T04:16:27.955Z,63.05
2023-01-26T04:19:13.674Z,63.78
2023-01-26T04:21:40.351Z,63.59
2023-01-26T04:24:16.733Z,63.34
2023-01-26T04:26:43.945Z,63.89
2023-01-26T04:29:12.634Z,62.43
2023-01-26T04:31:40.120Z,63.76
2023-01-26T04:34:10.469Z,62.29
2023-01-26T04:36:36.968Z,62.07
2023-01-26T04:39:03.917Z,62.59
2023-01-26T04:41:31.503Z,63.32
2023-01-26T04:43:58.707Z,62.06
2023-01-26T04:46:25.670Z,61.72
2023-01-26T04:48:52.619Z,60.73
2023-01-26T04:51:20.671Z,61.11
2023-01-26T04:53:48.347Z,61.18
2023-01-26T04:56:20.567Z,61.55
2023-01-26T04:58:47.034Z,60.60
2023-01-26T05:01:13.616Z,62.09
2023-01-26T05:03:40.694Z,63.36
2023-01-26T05:06:07.255Z,63.54
2023-01-26T05:08:33.924Z,64.10
2023-01-26T05:11:00.401Z,63.56
2023-01-26T05:13:26.891Z,63.21
2023-01-26T05:15:53.384Z,62.21
2023-01-26T05:18:19.858Z,62.14
2023-01-26T05:20:46.867Z,61.62
2023-01-26T05:23:13.385Z,63.63
2023-01-26T05:25:39.959Z,62.51
2023-01-26T05:28:06.451Z,63.44
2023-01-26T05:30:33.015Z,63.26
2023-01-26T05:33:04.652Z,62.77
2023-01-26T05:35:31.289Z,62.87
2023-01-26T05:37:57.972Z,62.59
2023-01-26T05:40:26.038Z,62.13
2023-01-26T05:42:53.792Z,63.16
2023-01-26T05:45:20.845Z,62.64
2023-01-26T05:47:48.609Z,62.49
2023-01-26T05:50:16.242Z,62.82
2023-01-26T05:52:44.087Z,64.25
2023-01-26T05:55:10.559Z,63.09
2023-01-26T05:57:37.167Z,64.22
2023-01-26T06:00:07.222Z,63.79
2023-01-26T06:02:33.795Z,62.83
2023-01-26T06:05:00.326Z,62.11
2023-01-26T06:07:26.938Z,62.97
2023-01-26T06:09:53.486Z,63.67
2023-01-26T06:12:21.038Z,65.43
2023-01-26T06:14:47.718Z,65.57
2023-01-26T06:17:15.696Z,66.83
2023-01-26T06:19:42.291Z,66.11
2023-01-26T06:22:10.119Z,66.34
2023-01-26T06:24:36.909Z,65.03
2023-01-26T06:27:06.893Z,64.52
2023-01-26T06:29:33.935Z,65.13
2023-01-26T06:32:00.715Z,65.36
2023-01-26T06:34:27.239Z,66.34
2023-01-26T06:36:53.937Z,65.84
2023-01-26T06:39:20.614Z,64.86
2023-01-26T06:41:47.060Z,65.11
2023-01-26T06:44:13.571Z,64.69
2023-01-26T06:46:40.134Z,64.22
2023-01-26T06:49:06.717Z,64.23
2023-01-26T06:51:39.368Z,64.28
2023-01-26T06:54:05.827Z,64.24
2023-01-26T06:56:32.486Z,64.38
2023-01-26T06:58:58.995Z,64.88
2023-01-26T07:01:26.501Z,65.09
2023-01-26T07:03:55.013Z,64.85
2023-01-26T07:06:25.330Z,63.99
2023-01-26T07:08:51.861Z,63.52
2023-01-26T07:11:20.069Z,64.98
2023-01-26T07:13:46.626Z,64.33
2023-01-26T07:16:15.363Z,63.89
2023-01-26T07:18:42.142Z,63.97
2023-01-26T07:21:13.611Z,63.14
2023-01-26T07:23:40.600Z,64.32
2023-01-26T07:26:07.411Z,64.92
2023-01-26T07:28:39.231Z,64.86
2023-01-26T07:31:07.127Z,64.24
2023-01-26T07:33:34.874Z,64.53
2023-01-26T07:36:01.733Z,64.42
2023-01-26T07:38:29.150Z,63.38
2023-01-26T07:40:56.355Z,64.88
2023-01-26T07:43:23.058Z,65.56
2023-01-26T07:45:51.734Z,66.03
2023-01-26T07:48:23.284Z,65.62
2023-01-26T07:50:50.883Z,64.96
2023-01-26T07:53:22.889Z,65.31
2023-01-26T07:55:49.960Z,65.63
2023-01-26T07:58:18.512Z,65.55
2023-01-26T08:00:47.192Z,64.57
2023-01-26T08:03:14.080Z,66.19
2023-01-26T08:05:40.617Z,67.15
2023-01-26T08:08:07.253Z,66.57
2023-01-26T08:10:33.951Z,65.65
2023-01-26T08:13:01.060Z,65.77
2023-01-26T08:15:28.501Z,64.83
2023-01-26T08:17:55.217Z,64.27
2023-01-26T08:20:22.052Z,64.50
2023-01-26T08:22:48.764Z,63.71
2023-01-26T08:25:15.463Z,62.85
2023-01-26T08:27:42.002Z,63.25
2023-01-26T08:30:09.384Z,65.25
2023-01-26T08:32:36.139Z,65.42
2023-01-26T08:35:02.756Z,66.02
2023-01-26T08:37:29.451Z,66.83
2023-01-26T08:39:55.985Z,67.05
2023-01-26T08:42:22.925Z,66.59
2023-01-26T08:44:49.514Z,65.90
2023-01-26T08:47:15.951Z,65.99
2023-01-26T08:49:42.469Z,66.67
2023-01-26T08:52:09.157Z,67.11
2023-01-26T08:54:35.798Z,67.03
2023-01-26T08:57:02.325Z,66.20
2023-01-26T08:59:28.846Z,66.12
2023-01-26T09:01:55.855Z,66.71
2023-01-26T09:04:22.530Z,67.85
2023-01-26T09:06:49.041Z,66.73
2023-01-26T09:09:15.802Z,67.58
2023-01-26T09:11:42.337Z,66.58
2023-01-26T09:14:08.983Z,66.28
2023-01-26T09:16:35.595Z,66.11
2023-01-26T09:19:02.392Z,65.79
2023-01-26T09:21:29.151Z,65.26
2023-01-26T09:23:57.282Z,65.61
2023-01-26T09:26:24.173Z,64.09
2023-01-26T09:28:52.527Z,63.71
2023-01-26T09:31:19.316Z,65.21
2023-01-26T09:33:46.235Z,66.73
2023-01-26T09:36:13.161Z,66.10
2023-01-26T09:38:40.271Z,64.21
2023-01-26T09:41:27.993Z,64.94
2023-01-26T09:43:59.796Z,63.64
2023-01-26T09:46:40.826Z,63.16
2023-01-26T09:49:30.889Z,62.79
2023-01-26T09:52:06.521Z,62.48
2023-01-26T09:54:33.012Z,63.62
2023-01-26T09:57:12.279Z,65.92
2023-01-26T09:59:59.379Z,64.20
2023-01-26T10:02:35.103Z,65.41
2023-01-26T10:05:07.344Z,65.61
2023-01-26T10:07:33.893Z,65.86
2023-01-26T10:10:00.668Z,67.63
2023-01-26T10:12:35.603Z,66.14
2023-01-26T10:15:10.746Z,67.82
2023-01-26T10:17:40.474Z,66.80
2023-01-26T10:20:10.202Z,67.00
2023-01-26T10:22:49.070Z,66.72
2023-01-26T10:25:18.667Z,65.49
2023-01-26T10:27:45.989Z,66.07
2023-01-26T10:30:14.436Z,64.59
2023-01-26T10:32:42.920Z,65.02
2023-01-26T10:35:24.166Z,65.59
2023-01-26T10:37:54.554Z,65.48
2023-01-26T10:40:21.717Z,65.82
2023-01-26T10:42:57.465Z,66.67
2023-01-26T10:45:27.297Z,65.72
2023-01-26T10:48:16.226Z,65.66
2023-01-26T10:50:42.816Z,65.26
2023-01-26T10:53:16.529Z,65.11
2023-01-26T10:55:43.052Z,68.42
2023-01-26T10:58:43.999Z,67.93
2023-01-26T11:01:12.450Z,66.74
2023-01-26T11:03:39.563Z,67.94
2023-01-26T11:06:08.394Z,67.15
2023-01-26T11:08:36.731Z,66.51
2023-01-26T11:11:04.764Z,67.06
2023-01-26T11:13:31.299Z,67.14
2023-01-26T11:16:20.666Z,67.16
2023-01-26T11:18:56.214Z,66.92
2023-01-26T11:21:36.934Z,66.97
2023-01-26T11:24:13.758Z,66.97
2023-01-26T11:26:54.704Z,66.58
2023-01-26T11:29:34.251Z,67.30
2023-01-26T11:32:20.068Z,66.21
2023-01-26T11:34:53.761Z,67.05
2023-01-26T11:37:29.190Z,66.47
2023-01-26T11:39:58.710Z,66.49
2023-01-26T11:43:08.923Z,68.25
2023-01-26T11:45:51.321Z,68.98
2023-01-26T11:48:57.192Z,68.93
2023-01-26T11:51:30.607Z,69.42
2023-01-26T11:54:24.923Z,67.71
2023-01-26T11:57:10.398Z,66.49
2023-01-26T11:59:41.201Z,66.86
2023-01-26T12:02:30.887Z,67.32
2023-01-26T12:05:03.290Z,67.24
2023-01-26T12:07:51.415Z,67.64
2023-01-26T12:10:21.499Z,67.40
2023-01-26T12:12:51.628Z,67.31
2023-01-26T12:15:29.788Z,66.78
2023-01-26T12:18:12.584Z,66.43
2023-01-26T12:21:06.127Z,66.20
2023-01-26T12:23:48.718Z,65.80
2023-01-26T12:26:18.273Z,67.92
2023-01-26T12:29:09.497Z,68.54
2023-01-26T12:31:45.631Z,68.07
2023-01-26T12:34:13.184Z,68.12
2023-01-26T12:36:59.142Z,67.22
2023-01-26T12:39:39.685Z,67.45
2023-01-26T12:42:31.635Z,66.67
2023-01-26T12:45:01.818Z,65.66
2023-01-26T12:47:41.865Z,65.17
2023-01-26T12:50:13.690Z,64.97
2023-01-26T12:52:55.291Z,65.16
2023-01-26T12:55:23.754Z,64.55
2023-01-26T12:58:06.180Z,65.54
2023-01-26T13:00:34.871Z,67.00
2023-01-26T13:03:05.669Z,68.30
2023-01-26T13:05:36.053Z,67.37
2023-01-26T13:08:47.113Z,66.89
2023-01-26T13:11:42.765Z,68.86
2023-01-26T13:14:30.621Z,68.49
2023-01-26T13:16:58.561Z,68.21
2023-01-26T13:19:43.557Z,67.27
2023-01-26T13:22:40.913Z,68.70
2023-01-26T13:25:36.873Z,69.46
2023-01-26T13:28:12.892Z,69.35
2023-01-26T13:30:44.614Z,69.68
2023-01-26T13:33:21.896Z,69.53
2023-01-26T13:35:50.759Z,70.54
2023-01-26T13:38:40.222Z,70.17
2023-01-26T13:41:20.709Z,68.92
2023-01-26T13:43:53.307Z,68.41
2023-01-26T13:46:28.310Z,68.98
2023-01-26T13:48:55.883Z,70.34
2023-01-26T13:51:26.387Z,69.08
2023-01-26T13:54:12.527Z,68.48
2023-01-26T13:56:43.920Z,69.15
2023-01-26T13:59:12.531Z,67.97
2023-01-26T14:01:53.635Z,67.56
2023-01-26T14:04:24.351Z,69.10
2023-01-26T14:06:58.731Z,68.68
2023-01-26T14:09:30.483Z,68.20
2023-01-26T14:12:05.103Z,69.68
2023-01-26T14:14:37.032Z,67.69
2023-01-26T14:17:10.830Z,68.28
2023-01-26T14:19:40.553Z,67.55
2023-01-26T14:22:13.505Z,67.49
2023-01-26T14:24:41.354Z,67.20
2023-01-26T14:27:35.121Z,65.78
2023-01-26T14:30:02.661Z,66.83
2023-01-26T14:32:29.891Z,69.20
2023-01-26T14:35:00.684Z,67.05
2023-01-26T14:37:28.330Z,66.30
2023-01-26T14:40:20.338Z,66.01
2023-01-26T14:42:48.716Z,67.19
2023-01-26T14:45:15.401Z,66.36
2023-01-26T14:47:42.916Z,68.34
2023-01-26T14:50:22.324Z,67.65
2023-01-26T14:52:49.165Z,68.18
2023-01-26T14:55:28.083Z,67.76
2023-01-26T14:57:55.614Z,66.98
2023-01-26T15:00:31.359Z,66.24
2023-01-26T15:02:59.142Z,67.06
2023-01-26T15:05:36.831Z,67.63
2023-01-26T15:08:19.245Z,67.64
2023-01-26T15:11:16.032Z,66.47
2023-01-26T15:13:45.136Z,66.49
2023-01-26T15:16:18.192Z,67.69
2023-01-26T15:18:45.153Z,69.01
2023-01-26T15:21:14.530Z,68.40
2023-01-26T15:23:43.231Z,66.94
2023-01-26T15:26:28.616Z,67.23
2023-01-26T15:28:57.114Z,67.04
2023-01-26T15:31:28.476Z,66.74
2023-01-26T15:33:56.097Z,67.10
2023-01-26T15:36:25.651Z,67.82
2023-01-26T15:38:58.706Z,68.66
2023-01-26T15:41:25.474Z,68.52
2023-01-26T15:43:51.987Z,67.95
2023-01-26T15:46:18.541Z,69.37
2023-01-26T15:48:45.035Z,68.45
2023-01-26T15:51:14.958Z,67.66
2023-01-26T15:53:41.847Z,67.16
2023-01-26T15:56:13.397Z,67.06
2023-01-26T15:58:40.658Z,67.34
2023-01-26T16:01:09.969Z,68.06
2023-01-26T16:03:36.500Z,69.79
2023-01-26T16:06:03.248Z,69.58
2023-01-26T16:08:29.722Z,67.74
2023-01-26T16:10:56.874Z,66.93
2023-01-26T16:13:23.494Z,66.13
2023-01-26T16:15:52.307Z,66.15
2023-01-26T16:18:19.403Z,69.17
2023-01-26T16:20:47.745Z,68.37
2023-01-26T16:23:24.181Z,68.07
2023-01-26T16:25:51.336Z,66.61
2023-01-26T16:28:19.253Z,65.91
2023-01-26T16:30:47.145Z,66.39
2023-01-26T16:33:16.383Z,66.72
2023-01-26T16:35:43.702Z,67.84
2023-01-26T16:38:13.174Z,67.44
2023-01-26T16:40:40.733Z,68.19
2023-01-26T16:43:17.177Z,69.70
2023-01-26T16:45:43.784Z,69.27
2023-01-26T16:48:14.934Z,69.64
2023-01-26T16:50:42.897Z,69.91
2023-01-26T16:53:26.159Z,69.45
2023-01-26T16:55:52.926Z,69.79
2023-01-26T16:58:20.105Z,70.19
2023-01-26T17:00:47.530Z,69.53
2023-01-26T17:03:14.468Z,68.54
2023-01-26T17:05:41.274Z,68.03
2023-01-26T17:08:08.058Z,68.61
2023-01-26T17:10:34.675Z,68.09
2023-01-26T17:13:01.652Z,68.38
2023-01-26T17:15:29.246Z,68.99
2023-01-26T17:17:56.312Z,68.28
2023-01-26T17:20:23.182Z,68.34
2023-01-26T17:22:50.067Z,68.17
2023-01-26T17:25:18.130Z,68.21
2023-01-26T17:27:46.383Z,67.48
2023-01-26T17:30:13.258Z,69.11
2023-01-26T17:32:41.883Z,70.05
2023-01-26T17:35:08.710Z,69.67
2023-01-26T17:37:35.706Z,69.52
2023-01-26T17:40:02.190Z,70.01
2023-01-26T17:42:30.091Z,68.79
2023-01-26T17:44:57.841Z,67.72
2023-01-26T17:47:27.585Z,66.86
2023-01-26T17:49:54.043Z,66.20
2023-01-26T17:52:20.506Z,66.84
2023-01-26T17:54:49.113Z,66.38
2023-01-26T17:57:15.720Z,65.72
2023-01-26T17:59:42.266Z,65.74
2023-01-26T18:02:11.897Z,67.10
2023-01-26T18:04:38.379Z,67.18
2023-01-26T18:07:05.059Z,66.89
2023-01-26T18:09:32.025Z,66.11
2023-01-26T18:11:58.539Z,66.01
2023-01-26T18:14:25.035Z,66.68
2023-01-26T18:16:51.563Z,68.02
2023-01-26T18:19:18.917Z,68.56
2023-01-26T18:21:45.460Z,69.27
2023-01-26T18:24:12.034Z,68.48
2023-01-26T18:26:38.767Z,66.69
2023-01-26T18:29:06.133Z,68.55
2023-01-26T18:31:36.820Z,67.18
2023-01-26T18:34:04.109Z,69.41
2023-01-26T18:36:31.205Z,67.78
2023-01-26T18:39:00.236Z,69.11
2023-01-26T18:41:28.291Z,69.22
2023-01-26T18:43:55.415Z,70.21
2023-01-26T18:46:22.696Z,69.03
2023-01-26T18:48:49.251Z,67.92
2023-01-26T18:51:15.824Z,68.35
2023-01-26T18:53:42.394Z,67.98
2023-01-26T18:56:11.110Z,68.74
2023-01-26T18:58:39.027Z,68.41
2023-01-26T19:01:09.767Z,68.75
2023-01-26T19:03:37.364Z,69.51
2023-01-26T19:06:07.324Z,68.96
2023-01-26T19:08:37.343Z,70.20
2023-01-26T19:11:05.924Z,71.38
2023-01-26T19:13:32.487Z,70.03
2023-01-26T19:15:59.004Z,68.59
2023-01-26T19:18:25.735Z,68.28
2023-01-26T19:20:59.306Z,71.81
2023-01-26T19:23:26.354Z,70.40
2023-01-26T19:25:53.211Z,69.70
2023-01-26T19:28:20.037Z,68.93
2023-01-26T19:30:47.264Z,67.84
2023-01-26T19:33:27.927Z,67.21
2023-01-26T19:35:56.187Z,66.97
2023-01-26T19:38:23.544Z,66.24
2023-01-26T19:40:51.780Z,65.58
2023-01-26T19:43:19.161Z,65.77
2023-01-26T19:45:50.554Z,65.14
2023-01-26T19:48:17.121Z,65.01
2023-01-26T19:50:43.897Z,65.37
2023-01-26T19:53:10.937Z,65.08
2023-01-26T19:55:37.748Z,65.97
2023-01-26T19:58:04.320Z,65.16
2023-01-26T20:00:30.948Z,64.66
2023-01-26T20:02:57.516Z,65.06
2023-01-26T20:05:24.041Z,64.91
2023-01-26T20:07:50.720Z,65.12
2023-01-26T20:10:17.517Z,64.81
2023-01-26T20:12:44.482Z,64.50
2023-01-26T20:15:11.475Z,64.10
2023-01-26T20:17:38.227Z,64.59
2023-01-26T20:20:05.365Z,64.28
2023-01-26T20:22:34.228Z,64.82
2023-01-26T20:25:01.088Z,65.69
2023-01-26T20:27:29.243Z,65.12
2023-01-26T20:29:56.120Z,65.29
2023-01-26T20:32:22.795Z,64.73
2023-01-26T20:34:49.465Z,64.75
2023-01-26T20:37:16.247Z,64.07
2023-01-26T20:39:44.982Z,64.83
2023-01-26T20:42:16.505Z,64.24
2023-01-26T20:44:43.554Z,67.32
2023-01-26T20:47:10.182Z,65.38
2023-01-26T20:49:37.359Z,65.63
2023-01-26T20:52:08.367Z,65.30
2023-01-26T20:54:35.635Z,64.85
2023-01-26T20:57:02.658Z,64.60
2023-01-26T20:59:30.374Z,64.27
2023-01-26T21:01:57.219Z,63.96
2023-01-26T21:04:23.816Z,63.90
2023-01-26T21:06:50.533Z,63.93
2023-01-26T21:09:17.190Z,64.06
2023-01-26T21:11:43.733Z,63.69
2023-01-26T21:14:12.113Z,63.82
2023-01-26T21:16:38.659Z,63.77
2023-01-26T21:19:05.363Z,64.30
2023-01-26T21:21:32.077Z,63.98
2023-01-26T21:23:58.753Z,64.64
2023-01-26T21:26:27.655Z,64.70
2023-01-26T21:28:56.801Z,64.77
2023-01-26T21:31:25.430Z,63.78
2023-01-26T21:33:52.703Z,63.51
2023-01-26T21:36:24.340Z,63.99
2023-01-26T21:38:52.234Z,63.72
2023-01-26T21:41:39.866Z,63.46
2023-01-26T21:44:53.503Z,63.28
2023-01-26T21:47:20.080Z,63.22
2023-01-26T21:49:47.684Z,62.76
2023-01-26T21:52:32.828Z,63.40
2023-01-26T21:54:59.310Z,63.21
2023-01-26T21:57:44.635Z,63.28
2023-01-26T22:00:11.925Z,63.40
2023-01-26T22:02:38.802Z,63.72
2023-01-26T22:05:05.640Z,63.65
2023-01-26T22:07:32.191Z,63.47
2023-01-26T22:09:58.752Z,63.54
2023-01-26T22:12:25.266Z,63.34
2023-01-26T22:14:52.332Z,63.16
2023-01-26T22:17:18.805Z,63.14
2023-01-26T22:19:45.300Z,63.74
2023-01-26T22:22:12.555Z,63.32
2023-01-26T22:24:39.052Z,63.33
2023-01-26T22:27:08.147Z,62.75
2023-01-26T22:29:34.778Z,63.44
2023-01-26T22:32:02.582Z,63.45
2023-01-26T22:34:29.131Z,63.62
2023-01-26T22:36:55.609Z,63.10
2023-01-26T22:39:22.168Z,62.97
2023-01-26T22:41:48.718Z,63.21
2023-01-26T22:44:15.261Z,63.01
2023-01-26T22:46:41.753Z,63.10
2023-01-26T22:49:09.819Z,62.63
2023-01-26T22:51:37.537Z,63.08
2023-01-26T22:54:04.966Z,62.54
2023-01-26T22:56:31.591Z,62.76
2023-01-26T22:59:00.489Z,62.64
2023-01-26T23:01:32.138Z,62.49
2023-01-26T23:03:59.322Z,62.76
2023-01-26T23:06:27.299Z,62.76
2023-01-26T23:08:54.506Z,63.38
2023-01-26T23:11:26.901Z,63.56
2023-01-26T23:13:54.936Z,63.11
2023-01-26T23:16:23.550Z,63.16
2023-01-26T23:18:54.604Z,62.94
2023-01-26T23:21:21.208Z,62.78
2023-01-26T23:23:47.724Z,62.75
2023-01-26T23:26:14.253Z,63.22
2023-01-26T23:28:42.336Z,63.44
2023-01-26T23:31:10.015Z,63.65
2023-01-26T23:33:37.275Z,64.53
2023-01-26T23:36:04.867Z,64.86
2023-01-26T23:38:31.954Z,63.84
2023-01-26T23:41:00.413Z,62.67
2023-01-26T23:43:27.425Z,62.32
2023-01-26T23:45:56.273Z,62.36
2023-01-26T23:48:23.363Z,62.14
2023-01-26T23:51:10.108Z,62.57
2023-01-26T23:53:37.184Z,61.80
2023-01-26T23:56:07.382Z,62.39
2023-01-26T23:58:34.087Z,61.99
